Página principal
METAR-TAF:

METAR-TAF

Aeroportos :

Enugu, Nigéria

latitude: 06-28N, longitude: 007-33E, altura: 137 m

Observação actual do tempo

O boletim foi feito há 1 hora e 12 minutos, às 14:00 UTC
Vento 5 kt de sul
Temperatura 32°C
Humidade 59%
Pressão 1011 hPa
Visibilidade 10 km ou mais
Nuvens fragmentadasa uma altura de 1400 ft

METAR: DNEN 221400Z 17005KT 9999 BKN014 32/23 Q1011 NOSIG

Hora: 16:12 (15:12 UTC)


TAF: em falta

Observações e previsões do tempo de mais de 4000 aeroportos (mensagens METAR e TAF).

As estações disponíveis são os pontos amarelos e vermelhos sobre o mapa.

Mova o rato sobre o mapa para ver o nome da estação.

Depois clique no ponto para visualizar as observações e previsões meteorológicas.

Para alterar o mapa : clique nos botões verdes com uma cruz preta para aumentar o zoom; no botão verde com uma pitada de zoom; ou nas setas verdes para mapas adjacentes.


METAR-TAF: